createdAt,value
2022-11-02T00:02:07.470Z,98735.56
2022-11-02T00:04:33.210Z,98736.81
2022-11-02T00:06:59.168Z,98745.03
2022-11-02T00:09:24.842Z,98752.38
2022-11-02T00:11:50.555Z,98752.97
2022-11-02T00:14:16.459Z,98750.94
2022-11-02T00:16:42.170Z,98748.50
2022-11-02T00:19:09.024Z,98749.41
2022-11-02T00:21:35.383Z,98757.22
2022-11-02T00:24:01.667Z,98751.94
2022-11-02T00:26:28.324Z,98752.56
2022-11-02T00:28:54.837Z,98763.66
2022-11-02T00:31:20.546Z,98762.88
2022-11-02T00:33:46.294Z,98762.09
2022-11-02T00:36:12.181Z,98762.31
2022-11-02T00:38:37.918Z,98768.72
2022-11-02T00:41:03.761Z,98766.50
2022-11-02T00:43:29.440Z,98764.25
2022-11-02T00:45:55.838Z,98774.69
2022-11-02T00:48:21.522Z,98772.88
2022-11-02T00:50:47.208Z,98778.38
2022-11-02T00:53:13.351Z,98767.94
2022-11-02T00:55:39.064Z,98766.50
2022-11-02T00:58:04.900Z,98776.31
2022-11-02T01:00:31.570Z,98779.81
2022-11-02T01:03:01.313Z,98792.50
2022-11-02T01:05:27.519Z,98787.59
2022-11-02T01:07:53.309Z,98787.41
2022-11-02T01:10:18.955Z,98783.53
2022-11-02T01:12:44.622Z,98776.16
2022-11-02T01:15:10.489Z,98774.72
2022-11-02T01:17:36.769Z,98774.94
2022-11-02T01:20:04.446Z,98762.22
2022-11-02T01:22:31.316Z,98764.28
2022-11-02T01:24:56.994Z,98767.75
2022-11-02T01:27:23.076Z,98771.25
2022-11-02T01:29:49.117Z,98773.91
2022-11-02T01:32:14.809Z,98767.94
2022-11-02T01:34:40.493Z,98770.41
2022-11-02T01:37:06.479Z,98769.16
2022-11-02T01:39:32.142Z,98767.09
2022-11-02T01:41:57.946Z,98767.09
2022-11-02T01:44:25.702Z,98769.53
2022-11-02T01:46:57.147Z,98763.00
2022-11-02T01:49:23.116Z,98762.59
2022-11-02T01:51:57.264Z,98765.69
2022-11-02T01:54:26.241Z,98754.84
2022-11-02T01:56:57.494Z,98750.53
2022-11-02T01:59:30.364Z,98763.03
2022-11-02T02:01:56.278Z,98756.44
2022-11-02T02:04:22.658Z,98752.16
2022-11-02T02:06:49.632Z,98764.03
2022-11-02T02:09:15.804Z,98759.25
2022-11-02T02:11:41.478Z,98753.91
2022-11-02T02:14:09.156Z,98753.47
2022-11-02T02:16:40.965Z,98756.34
2022-11-02T02:19:32.631Z,98765.16
2022-11-02T02:22:21.522Z,98760.44
2022-11-02T02:25:29.325Z,98755.75
2022-11-02T02:28:13.697Z,98744.88
2022-11-02T02:30:49.442Z,98758.00
2022-11-02T02:33:32.796Z,98749.41
2022-11-02T02:36:06.136Z,98748.78
2022-11-02T02:38:48.635Z,98750.81
2022-11-02T02:41:43.562Z,98742.59
2022-11-02T02:44:15.493Z,98739.72
2022-11-02T02:47:01.485Z,98740.66
2022-11-02T02:49:34.633Z,98738.16
2022-11-02T02:52:01.726Z,98734.56
2022-11-02T02:54:35.512Z,98740.22
2022-11-02T02:57:07.795Z,98740.91
2022-11-02T02:59:40.438Z,98735.31
2022-11-02T03:02:12.039Z,98732.13
2022-11-02T03:04:38.123Z,98739.22
2022-11-02T03:07:04.315Z,98733.84
2022-11-02T03:09:41.925Z,98737.06
2022-11-02T03:12:26.376Z,98731.69
2022-11-02T03:15:05.861Z,98734.28
2022-11-02T03:17:58.341Z,98738.34
2022-11-02T03:20:33.022Z,98738.41
2022-11-02T03:23:14.668Z,98741.81
2022-11-02T03:25:43.324Z,98741.56
2022-11-02T03:28:25.915Z,98751.75
2022-11-02T03:30:59.834Z,98740.19
2022-11-02T03:33:32.238Z,98740.13
2022-11-02T03:36:12.309Z,98745.38
2022-11-02T03:38:44.906Z,98744.28
2022-11-02T03:41:12.143Z,98745.66
2022-11-02T03:43:40.508Z,98743.34
2022-11-02T03:46:07.996Z,98748.84
2022-11-02T03:48:44.297Z,98747.22
2022-11-02T03:51:13.795Z,98754.53
2022-11-02T03:53:52.884Z,98748.41
2022-11-02T03:56:25.060Z,98738.59
2022-11-02T03:58:50.921Z,98745.75
2022-11-02T04:01:20.056Z,98743.47
2022-11-02T04:03:46.676Z,98745.50
2022-11-02T04:06:13.879Z,98750.34
2022-11-02T04:08:45.213Z,98749.53
2022-11-02T04:11:29.940Z,98744.41
2022-11-02T04:14:14.247Z,98742.94
2022-11-02T04:16:40.140Z,98741.44
2022-11-02T04:19:24.531Z,98738.97
2022-11-02T04:22:08.780Z,98747.13
2022-11-02T04:24:53.087Z,98750.97
2022-11-02T04:27:21.121Z,98755.63
2022-11-02T04:29:47.358Z,98765.81
2022-11-02T04:32:13.003Z,98751.91
2022-11-02T04:34:38.717Z,98764.53
2022-11-02T04:37:24.331Z,98761.06
2022-11-02T04:39:50.125Z,98753.28
2022-11-02T04:42:15.793Z,98755.94
2022-11-02T04:44:41.508Z,98754.91
2022-11-02T04:47:07.188Z,98762.06
2022-11-02T04:49:32.890Z,98752.25
2022-11-02T04:51:58.536Z,98757.13
2022-11-02T04:54:24.180Z,98744.84
2022-11-02T04:56:49.877Z,98751.16
2022-11-02T04:59:15.530Z,98760.41
2022-11-02T05:01:41.317Z,98759.22
2022-11-02T05:04:09.444Z,98773.94
2022-11-02T05:06:35.676Z,98757.28
2022-11-02T05:09:01.370Z,98759.38
2022-11-02T05:11:27.125Z,98756.41
2022-11-02T05:13:52.769Z,98764.19
2022-11-02T05:16:18.419Z,98768.28
2022-11-02T05:18:44.200Z,98771.59
2022-11-02T05:21:11.351Z,98766.72
2022-11-02T05:23:37.836Z,98760.59
2022-11-02T05:26:10.382Z,98759.78
2022-11-02T05:28:36.091Z,98770.56
2022-11-02T05:31:02.171Z,98771.03
2022-11-02T05:33:30.793Z,98769.84
2022-11-02T05:35:58.217Z,98781.91
2022-11-02T05:38:24.731Z,98779.06
2022-11-02T05:40:55.240Z,98783.56
2022-11-02T05:43:21.692Z,98784.38
2022-11-02T05:45:57.662Z,98782.94
2022-11-02T05:48:24.681Z,98776.78
2022-11-02T05:50:58.530Z,98781.47
2022-11-02T05:53:25.977Z,98784.69
2022-11-02T05:55:52.487Z,98777.25
2022-11-02T05:58:18.244Z,98777.44
2022-11-02T06:00:44.001Z,98790.09
2022-11-02T06:03:09.936Z,98785.94
2022-11-02T06:05:35.913Z,98789.41
2022-11-02T06:08:02.285Z,98799.22
2022-11-02T06:10:29.681Z,98794.91
2022-11-02T06:13:00.141Z,98804.88
2022-11-02T06:15:27.001Z,98805.88
2022-11-02T06:17:52.811Z,98810.19
2022-11-02T06:20:19.402Z,98812.22
2022-11-02T06:22:45.716Z,98812.84
2022-11-02T06:25:12.098Z,98812.84
2022-11-02T06:27:42.169Z,98809.81
2022-11-02T06:30:10.831Z,98816.63
2022-11-02T06:32:36.616Z,98819.28
2022-11-02T06:35:02.292Z,98826.88
2022-11-02T06:37:28.072Z,98825.50
2022-11-02T06:39:53.739Z,98824.97
2022-11-02T06:42:19.501Z,98830.53
2022-11-02T06:44:45.195Z,98825.69
2022-11-02T06:47:10.921Z,98830.47
2022-11-02T06:49:36.818Z,98838.72
2022-11-02T06:52:02.652Z,98832.47
2022-11-02T06:54:28.302Z,98840.19
2022-11-02T06:56:53.976Z,98837.78
2022-11-02T06:59:19.722Z,98838.88
2022-11-02T07:01:45.498Z,98841.16
2022-11-02T07:04:11.318Z,98853.69
2022-11-02T07:06:36.985Z,98854.00
2022-11-02T07:09:02.749Z,98852.44
2022-11-02T07:11:28.513Z,98862.91
2022-11-02T07:13:54.572Z,98868.91
2022-11-02T07:16:20.244Z,98875.59
2022-11-02T07:18:46.022Z,98879.78
2022-11-02T07:21:11.854Z,98871.88
2022-11-02T07:23:37.787Z,98883.06
2022-11-02T07:26:04.357Z,98884.78
2022-11-02T07:28:30.378Z,98891.44
2022-11-02T07:30:56.457Z,98894.41
2022-11-02T07:33:22.441Z,98895.56
2022-11-02T07:35:48.127Z,98882.75
2022-11-02T07:38:13.841Z,98889.16
2022-11-02T07:40:39.698Z,98893.97
2022-11-02T07:43:06.522Z,98893.19
2022-11-02T07:45:32.641Z,98902.47
2022-11-02T07:47:58.341Z,98890.28
2022-11-02T07:50:28.493Z,98890.38
2022-11-02T07:52:56.656Z,98887.81
2022-11-02T07:55:27.539Z,98892.97
2022-11-02T07:58:05.278Z,98893.91
2022-11-02T08:00:34.598Z,98889.28
2022-11-02T08:03:01.712Z,98896.50
2022-11-02T08:05:28.724Z,98896.38
2022-11-02T08:08:01.646Z,98895.41
2022-11-02T08:10:32.592Z,98899.56
2022-11-02T08:13:01.243Z,98898.97
2022-11-02T08:15:27.101Z,98898.56
2022-11-02T08:18:13.564Z,98895.06
2022-11-02T08:20:40.259Z,98899.19
2022-11-02T08:23:06.962Z,98897.34
2022-11-02T08:25:33.922Z,98898.34
2022-11-02T08:28:00.793Z,98909.50
2022-11-02T08:30:28.626Z,98910.09
2022-11-02T08:32:57.123Z,98913.78
2022-11-02T08:35:23.253Z,98914.78
2022-11-02T08:37:55.873Z,98916.78
2022-11-02T08:40:21.673Z,98916.69
2022-11-02T08:42:47.668Z,98922.16
2022-11-02T08:45:14.611Z,98921.22
2022-11-02T08:47:41.542Z,98921.16
2022-11-02T08:50:10.624Z,98923.25
2022-11-02T08:52:40.508Z,98921.56
2022-11-02T08:55:06.968Z,98933.03
2022-11-02T08:57:32.736Z,98931.69
2022-11-02T08:59:58.409Z,98928.72
2022-11-02T09:02:24.288Z,98929.53
2022-11-02T09:04:50.003Z,98934.56
2022-11-02T09:07:15.964Z,98933.38
2022-11-02T09:09:41.732Z,98951.28
2022-11-02T09:12:07.530Z,98936.72
2022-11-02T09:14:33.468Z,98936.28
2022-11-02T09:16:59.397Z,98944.56
2022-11-02T09:19:25.050Z,98944.22
2022-11-02T09:21:50.923Z,98939.94
2022-11-02T09:24:16.730Z,98943.50
2022-11-02T09:26:42.466Z,98942.28
2022-11-02T09:29:08.229Z,98944.44
2022-11-02T09:31:33.893Z,98939.03
2022-11-02T09:33:59.626Z,98942.84
2022-11-02T09:36:25.328Z,98937.69
2022-11-02T09:38:50.992Z,98944.06
2022-11-02T09:41:50.227Z,98942.16
2022-11-02T09:44:26.810Z,98949.53
2022-11-02T09:47:27.849Z,98946.81
2022-11-02T09:49:40.497Z,98948.97
2022-11-02T09:52:14.302Z,98944.34
2022-11-02T09:54:43.228Z,98945.00
2022-11-02T09:57:13.970Z,98951.13
2022-11-02T09:59:40.927Z,98962.34
2022-11-02T10:02:34.348Z,98958.41
2022-11-02T10:05:26.602Z,98961.69
2022-11-02T10:08:01.853Z,98959.75
2022-11-02T10:10:39.611Z,98957.78
2022-11-02T10:13:39.370Z,98960.34
2022-11-02T10:16:16.016Z,98962.78
2022-11-02T10:18:42.439Z,98966.31
2022-11-02T10:21:13.761Z,98965.38
2022-11-02T10:23:43.807Z,98950.25
2022-11-02T10:26:17.863Z,98951.91
2022-11-02T10:28:47.800Z,98960.22
2022-11-02T10:31:32.013Z,98954.41
2022-11-02T10:34:12.633Z,98953.66
2022-11-02T10:36:57.298Z,98949.53
2022-11-02T10:39:40.471Z,98947.72
2022-11-02T10:42:29.551Z,98949.69
2022-11-02T10:45:25.707Z,98949.22
2022-11-02T10:48:03.007Z,98951.53
2022-11-02T10:50:45.569Z,98944.88
2022-11-02T10:53:39.497Z,98948.03
2022-11-02T10:56:11.530Z,98941.84
2022-11-02T10:58:45.459Z,98936.84
2022-11-02T11:01:12.740Z,98941.19
2022-11-02T11:03:58.770Z,98933.69
2022-11-02T11:06:28.662Z,98928.78
2022-11-02T11:09:04.302Z,98941.09
2022-11-02T11:11:39.005Z,98948.34
2022-11-02T11:20:20.005Z,98935.09
2022-11-02T11:22:45.756Z,98944.19
2022-11-02T11:25:11.635Z,98935.78
2022-11-02T11:27:46.697Z,98942.47
2022-11-02T11:33:22.212Z,98933.94
2022-11-02T11:35:50.070Z,98939.41
2022-11-02T11:38:19.051Z,98930.41
2022-11-02T11:40:53.000Z,98938.44
2022-11-02T11:43:21.861Z,98945.47
2022-11-02T11:46:00.580Z,98940.16
2022-11-02T11:48:49.972Z,98940.97
2022-11-02T11:51:29.788Z,98940.97
2022-11-02T11:54:26.177Z,98939.50
2022-11-02T11:57:15.677Z,98940.47
2022-11-02T11:59:51.264Z,98943.28
2022-11-02T12:02:32.500Z,98935.69
2022-11-02T12:05:00.928Z,98935.91
2022-11-02T12:08:00.882Z,98931.72
2022-11-02T12:10:40.410Z,98925.47
2022-11-02T12:13:19.055Z,98933.84
2022-11-02T12:16:14.239Z,98943.03
2022-11-02T12:19:01.765Z,98933.88
2022-11-02T12:21:54.597Z,98939.13
2022-11-02T12:24:46.056Z,98939.13
2022-11-02T12:27:14.678Z,98934.50
2022-11-02T12:29:58.671Z,98939.63
2022-11-02T12:32:49.367Z,98940.84
2022-11-02T12:35:39.957Z,98945.31
2022-11-02T12:38:21.072Z,98943.38
2022-11-02T12:41:05.250Z,98947.41
2022-11-02T12:43:39.258Z,98935.69
2022-11-02T12:46:10.688Z,98929.44
2022-11-02T12:49:01.523Z,98926.47
2022-11-02T12:51:37.357Z,98916.50
2022-11-02T12:54:11.395Z,98922.25
2022-11-02T12:56:46.233Z,98914.56
2022-11-02T12:59:22.850Z,98914.94
2022-11-02T13:01:54.355Z,98928.69
2022-11-02T13:04:29.525Z,98908.63
2022-11-02T13:07:13.155Z,98908.41
2022-11-02T13:09:51.669Z,98910.34
2022-11-02T13:12:20.803Z,98922.44
2022-11-02T13:14:49.263Z,98916.25
2022-11-02T13:17:22.828Z,98896.41
2022-11-02T13:19:53.439Z,98894.53
2022-11-02T13:22:23.362Z,98898.63
2022-11-02T13:24:55.632Z,98901.16
2022-11-02T13:27:45.359Z,98910.06
2022-11-02T13:30:16.254Z,98906.97
2022-11-02T13:32:48.392Z,98901.16
2022-11-02T13:35:26.537Z,98889.59
2022-11-02T13:38:04.216Z,98892.38
2022-11-02T13:40:37.042Z,98896.47
2022-11-02T13:43:13.265Z,98893.28
2022-11-02T13:45:52.606Z,98889.75
2022-11-02T13:48:36.915Z,98891.84
2022-11-02T13:51:07.524Z,98881.47
2022-11-02T13:53:37.763Z,98868.50
2022-11-02T13:56:21.529Z,98885.28
2022-11-02T13:58:52.744Z,98880.63
2022-11-02T14:01:19.671Z,98885.63
2022-11-02T14:03:57.393Z,98879.59
2022-11-02T14:06:26.572Z,98893.91
2022-11-02T14:08:59.094Z,98897.25
2022-11-02T14:11:33.296Z,98893.53
2022-11-02T14:14:01.765Z,98890.25
2022-11-02T14:16:42.810Z,98878.97
2022-11-02T14:19:20.248Z,98889.25
2022-11-02T14:21:58.557Z,98889.44
2022-11-02T14:24:36.202Z,98893.53
2022-11-02T14:27:11.094Z,98903.00
2022-11-02T14:29:46.085Z,98896.00
2022-11-02T14:32:30.088Z,98899.63
2022-11-02T14:35:14.617Z,98903.56
2022-11-02T14:37:45.159Z,98904.09
2022-11-02T14:40:22.745Z,98906.22
2022-11-02T14:43:05.022Z,98903.75
2022-11-02T14:45:54.478Z,98904.56
2022-11-02T14:48:20.252Z,98904.25
2022-11-02T14:51:03.410Z,98906.34
2022-11-02T14:53:33.597Z,98899.00
2022-11-02T14:55:59.769Z,98894.16
2022-11-02T14:58:36.582Z,98903.50
2022-11-02T15:01:04.520Z,98905.63
2022-11-02T15:03:40.832Z,98902.16
2022-11-02T15:06:16.974Z,98900.56
2022-11-02T15:08:50.538Z,98902.22
2022-11-02T15:11:41.542Z,98893.16
2022-11-02T15:14:35.347Z,98881.47
2022-11-02T15:17:14.580Z,98892.47
2022-11-02T15:19:53.133Z,98884.44
2022-11-02T15:22:28.062Z,98891.69
2022-11-02T15:24:57.744Z,98884.97
2022-11-02T15:27:24.158Z,98886.81
2022-11-02T15:29:50.725Z,98894.69
2022-11-02T15:32:23.031Z,98889.78
2022-11-02T15:34:51.476Z,98897.44
2022-11-02T15:37:25.941Z,98900.34
2022-11-02T15:40:00.719Z,98890.09
2022-11-02T15:42:34.530Z,98896.47
2022-11-02T15:45:34.264Z,98890.75
2022-11-02T15:48:15.230Z,98880.47
2022-11-02T15:51:05.998Z,98878.25
2022-11-02T15:53:39.802Z,98889.53
2022-11-02T15:56:33.598Z,98880.50
2022-11-02T15:59:17.315Z,98880.28
2022-11-02T16:01:43.166Z,98888.09
2022-11-02T16:04:19.124Z,98892.78
2022-11-02T16:06:46.040Z,98899.16
2022-11-02T16:09:41.132Z,98902.84
2022-11-02T16:12:12.952Z,98892.34
2022-11-02T16:14:39.886Z,98891.50
2022-11-02T16:17:17.496Z,98884.09
2022-11-02T16:19:43.470Z,98884.47
2022-11-02T16:22:09.276Z,98882.41
2022-11-02T16:24:35.118Z,98888.91
2022-11-02T16:27:01.925Z,98896.50
2022-11-02T16:29:30.686Z,98895.25
2022-11-02T16:31:56.705Z,98892.38
2022-11-02T16:34:27.594Z,98888.81
2022-11-02T16:36:53.748Z,98890.66
2022-11-02T16:39:41.139Z,98898.19
2022-11-02T16:42:16.514Z,98889.88
2022-11-02T16:44:42.509Z,98899.25
2022-11-02T16:47:11.107Z,98896.91
2022-11-02T16:49:49.009Z,98901.34
2022-11-02T16:52:29.899Z,98901.41
2022-11-02T16:54:56.041Z,98908.94
2022-11-02T16:57:25.348Z,98909.25
2022-11-02T16:59:56.465Z,98905.47
2022-11-02T17:02:37.702Z,98901.44
2022-11-02T17:05:07.033Z,98894.81
2022-11-02T17:07:40.906Z,98888.13
2022-11-02T17:10:08.066Z,98888.06
2022-11-02T17:12:37.487Z,98889.66
2022-11-02T17:15:13.895Z,98900.22
2022-11-02T17:17:39.819Z,98901.78
2022-11-02T17:20:14.132Z,98904.19
2022-11-02T17:22:54.908Z,98900.44
2022-11-02T17:25:28.387Z,98893.22
2022-11-02T17:27:56.968Z,98881.47
2022-11-02T17:30:34.674Z,98889.19
2022-11-02T17:33:12.694Z,98892.78
2022-11-02T17:35:45.134Z,98899.47
2022-11-02T17:38:11.108Z,98898.34
2022-11-02T17:40:37.433Z,98886.22
2022-11-02T17:43:03.151Z,98890.25
2022-11-02T17:45:36.664Z,98883.88
2022-11-02T17:48:03.971Z,98878.09
2022-11-02T17:50:31.020Z,98877.00
2022-11-02T17:52:58.049Z,98884.34
2022-11-02T17:55:26.972Z,98879.34
2022-11-02T17:57:54.084Z,98876.81
2022-11-02T18:00:20.753Z,98869.13
2022-11-02T18:02:51.624Z,98875.97
2022-11-02T18:05:23.203Z,98867.34
2022-11-02T18:07:49.698Z,98867.91
2022-11-02T18:10:16.628Z,98868.09
2022-11-02T18:12:42.795Z,98874.13
2022-11-02T18:15:20.517Z,98868.53
2022-11-02T18:17:46.333Z,98875.03
2022-11-02T18:20:13.675Z,98871.53
2022-11-02T18:22:39.635Z,98863.75
2022-11-02T18:25:07.654Z,98862.09
2022-11-02T18:27:34.579Z,98859.63
2022-11-02T18:30:00.672Z,98857.97
2022-11-02T18:32:26.340Z,98859.81
2022-11-02T18:34:52.035Z,98853.84
2022-11-02T18:37:17.766Z,98861.53
2022-11-02T18:39:43.476Z,98847.63
2022-11-02T18:42:09.208Z,98850.28
2022-11-02T18:44:34.999Z,98839.03
2022-11-02T18:47:00.804Z,98839.22
2022-11-02T18:49:26.501Z,98847.53
2022-11-02T18:51:52.810Z,98848.88
2022-11-02T18:54:18.616Z,98835.31
2022-11-02T18:56:44.902Z,98839.34
2022-11-02T18:59:10.682Z,98833.56
2022-11-02T19:01:36.518Z,98827.97
2022-11-02T19:04:02.875Z,98833.16
2022-11-02T19:06:48.889Z,98836.34
2022-11-02T19:09:20.531Z,98827.94
2022-11-02T19:12:12.779Z,98829.28
2022-11-02T19:14:42.495Z,98840.25
2022-11-02T19:17:09.935Z,98832.84
2022-11-02T19:19:36.653Z,98839.00
2022-11-02T19:22:02.952Z,98829.41
2022-11-02T19:24:28.907Z,98834.69
2022-11-02T19:26:54.727Z,98826.28
2022-11-02T19:29:20.435Z,98838.41
2022-11-02T19:31:46.393Z,98843.59
2022-11-02T19:34:12.279Z,98831.84
2022-11-02T19:36:38.114Z,98834.03
2022-11-02T19:39:07.652Z,98837.69
2022-11-02T19:41:33.345Z,98821.97
2022-11-02T19:43:59.100Z,98828.44
2022-11-02T19:46:26.247Z,98824.97
2022-11-02T19:48:52.470Z,98830.44
2022-11-02T19:51:20.794Z,98834.44
2022-11-02T19:53:49.126Z,98818.72
2022-11-02T19:56:16.250Z,98817.06
2022-11-02T19:58:47.287Z,98821.69
2022-11-02T20:01:22.259Z,98821.41
2022-11-02T20:03:48.750Z,98822.28
2022-11-02T20:06:19.493Z,98812.84
2022-11-02T20:08:52.600Z,98819.16
2022-11-02T20:11:19.040Z,98813.84
2022-11-02T20:13:46.244Z,98813.19
2022-11-02T20:16:14.195Z,98815.03
2022-11-02T20:18:41.960Z,98816.03
2022-11-02T20:21:10.991Z,98818.84
2022-11-02T20:23:37.140Z,98822.81
2022-11-02T20:26:05.180Z,98812.38
2022-11-02T20:28:31.414Z,98812.56
2022-11-02T20:30:57.230Z,98812.09
2022-11-02T20:33:23.804Z,98813.09
2022-11-02T20:35:49.687Z,98809.31
2022-11-02T20:38:15.646Z,98811.47
2022-11-02T20:40:41.524Z,98810.00
2022-11-02T20:43:07.245Z,98811.97
2022-11-02T20:45:33.079Z,98809.50
2022-11-02T20:48:01.971Z,98817.09
2022-11-02T20:50:28.159Z,98818.44
2022-11-02T20:52:57.392Z,98824.75
2022-11-02T20:55:23.144Z,98816.50
2022-11-02T20:57:49.325Z,98821.31
2022-11-02T21:00:17.288Z,98817.00
2022-11-02T21:02:44.767Z,98821.47
2022-11-02T21:05:10.806Z,98818.00
2022-11-02T21:07:36.482Z,98817.31
2022-11-02T21:10:02.202Z,98819.13
2022-11-02T21:12:46.580Z,98810.53
2022-11-02T21:15:12.283Z,98807.25
2022-11-02T21:17:38.056Z,98805.44
2022-11-02T21:20:28.488Z,98805.44
2022-11-02T21:22:49.983Z,98809.06
2022-11-02T21:25:15.994Z,98799.81
2022-11-02T21:27:41.897Z,98801.16
2022-11-02T21:30:08.486Z,98816.38
2022-11-02T21:32:34.272Z,98805.97
2022-11-02T21:35:00.605Z,98796.38
2022-11-02T21:37:26.282Z,98806.31
2022-11-02T21:39:52.042Z,98807.63
2022-11-02T21:42:17.766Z,98799.38
2022-11-02T21:44:43.437Z,98793.41
2022-11-02T21:47:09.395Z,98797.72
2022-11-02T21:49:35.158Z,98804.66
2022-11-02T21:52:01.235Z,98794.41
2022-11-02T21:54:26.878Z,98794.41
2022-11-02T21:56:52.630Z,98797.88
2022-11-02T21:59:18.338Z,98806.81
2022-11-02T22:01:44.162Z,98797.41
2022-11-02T22:04:11.395Z,98792.28
2022-11-02T22:06:37.619Z,98791.78
2022-11-02T22:09:05.622Z,98789.31
2022-11-02T22:11:31.535Z,98790.31
2022-11-02T22:13:58.766Z,98786.19
2022-11-02T22:16:30.961Z,98788.31
2022-11-02T22:18:59.075Z,98781.88
2022-11-02T22:21:27.426Z,98789.81
2022-11-02T22:23:53.670Z,98782.88
2022-11-02T22:26:22.275Z,98787.50
2022-11-02T22:28:48.644Z,98788.50
2022-11-02T22:31:26.706Z,98785.19
2022-11-02T22:33:56.001Z,98788.34
2022-11-02T22:36:24.234Z,98779.75
2022-11-02T22:38:52.629Z,98775.47
2022-11-02T22:41:20.140Z,98782.56
2022-11-02T22:43:46.713Z,98763.06
2022-11-02T22:46:13.970Z,98767.38
2022-11-02T22:48:39.617Z,98770.84
2022-11-02T22:51:05.757Z,98765.56
2022-11-02T22:53:31.983Z,98769.34
2022-11-02T22:56:12.979Z,98765.19
2022-11-02T22:58:40.567Z,98750.34
2022-11-02T23:01:08.226Z,98751.50
2022-11-02T23:03:34.541Z,98749.03
2022-11-02T23:06:01.022Z,98735.16
2022-11-02T23:08:28.147Z,98746.72
2022-11-02T23:11:17.153Z,98738.78
2022-11-02T23:13:44.151Z,98741.75
2022-11-02T23:16:21.007Z,98747.22
2022-11-02T23:19:11.547Z,98741.94
2022-11-02T23:21:46.642Z,98745.22
2022-11-02T23:24:31.196Z,98740.78
2022-11-02T23:26:57.343Z,98741.59
2022-11-02T23:29:41.648Z,98738.78
2022-11-02T23:32:28.088Z,98736.78
2022-11-02T23:35:13.918Z,98734.97
2022-11-02T23:37:39.807Z,98738.44
2022-11-02T23:40:06.291Z,98734.00
2022-11-02T23:42:32.286Z,98730.53
2022-11-02T23:44:58.237Z,98727.88
2022-11-02T23:47:46.865Z,98722.09
2022-11-02T23:50:12.712Z,98730.38
2022-11-02T23:52:57.169Z,98725.41
2022-11-02T23:55:41.508Z,98720.13
2022-11-02T23:58:07.604Z,98722.28
